createdAt,value
2022-08-20T00:00:38.320Z,16.05
2022-08-20T00:03:16.860Z,16.52
2022-08-20T00:05:47.533Z,16.08
2022-08-20T00:08:14.676Z,15.93
2022-08-20T00:10:44.147Z,15.57
2022-08-20T00:13:18.266Z,15.10
2022-08-20T00:15:45.504Z,14.73
2022-08-20T00:18:12.601Z,14.77
2022-08-20T00:20:44.872Z,13.80
2022-08-20T00:23:11.954Z,14.88
2022-08-20T00:25:38.675Z,14.70
2022-08-20T00:28:07.161Z,15.20
2022-08-20T00:30:35.067Z,14.35
2022-08-20T00:33:08.437Z,14.95
2022-08-20T00:35:40.139Z,13.65
2022-08-20T00:38:06.815Z,16.23
2022-08-20T00:40:56.331Z,15.70
2022-08-20T00:43:39.147Z,15.05
2022-08-20T00:46:14.933Z,14.23
2022-08-20T00:48:44.377Z,14.38
2022-08-20T00:51:22.805Z,14.45
2022-08-20T00:53:49.514Z,14.80
2022-08-20T00:56:16.121Z,14.18
2022-08-20T00:58:45.270Z,13.60
2022-08-20T01:01:12.133Z,13.90
2022-08-20T01:03:39.914Z,13.77
2022-08-20T01:06:06.766Z,13.82
2022-08-20T01:08:33.345Z,14.35
2022-08-20T01:11:09.775Z,13.68
2022-08-20T01:13:38.838Z,14.63
2022-08-20T01:16:12.914Z,13.05
2022-08-20T01:18:39.592Z,14.70
2022-08-20T01:21:07.109Z,13.65
2022-08-20T01:24:00.957Z,18.08
2022-08-20T01:26:31.637Z,15.02
2022-08-20T01:29:05.276Z,15.38
2022-08-20T01:31:34.385Z,15.77
2022-08-20T01:34:02.237Z,15.30
2022-08-20T01:36:45.944Z,16.73
2022-08-20T01:39:16.455Z,14.38
2022-08-20T01:41:58.090Z,16.58
2022-08-20T01:44:25.062Z,16.92
2022-08-20T01:46:55.309Z,16.35
2022-08-20T01:49:32.779Z,18.58
2022-08-20T01:52:02.824Z,17.10
2022-08-20T01:54:29.461Z,17.58
2022-08-20T01:57:00.956Z,16.60
2022-08-20T01:59:27.903Z,18.00
2022-08-20T02:01:55.600Z,18.73
2022-08-20T02:04:22.614Z,19.55
2022-08-20T02:06:57.497Z,20.77
2022-08-20T02:09:26.749Z,18.58
2022-08-20T02:11:53.591Z,18.77
2022-08-20T02:14:20.609Z,19.80
2022-08-20T02:16:54.799Z,18.90
2022-08-20T02:19:38.521Z,19.17
2022-08-20T02:22:20.278Z,18.13
2022-08-20T02:24:48.456Z,19.60
2022-08-20T02:27:15.293Z,18.20
2022-08-20T02:29:42.041Z,19.25
2022-08-20T02:32:24.375Z,21.40
2022-08-20T02:34:55.785Z,21.08
2022-08-20T02:37:22.318Z,22.67
2022-08-20T02:39:49.119Z,24.65
2022-08-20T02:42:17.013Z,24.63
2022-08-20T02:44:43.750Z,21.17
2022-08-20T02:47:10.287Z,22.98
2022-08-20T02:49:36.906Z,23.30
2022-08-20T02:52:03.835Z,22.80
2022-08-20T02:54:30.436Z,21.58
2022-08-20T02:56:56.988Z,23.65
2022-08-20T02:59:23.579Z,22.88
2022-08-20T03:01:59.881Z,25.35
2022-08-20T03:04:30.498Z,24.90
2022-08-20T03:06:57.679Z,26.42
2022-08-20T03:09:24.498Z,24.67
2022-08-20T03:11:51.442Z,26.98
2022-08-20T03:14:18.010Z,30.90
2022-08-20T03:16:44.604Z,25.67
2022-08-20T03:19:11.249Z,29.63
2022-08-20T03:21:37.809Z,33.90
2022-08-20T03:24:04.549Z,33.58
2022-08-20T03:26:31.351Z,34.88
2022-08-20T03:28:57.908Z,32.95
2022-08-20T03:31:24.443Z,30.38
2022-08-20T03:33:53.636Z,29.38
2022-08-20T03:36:27.917Z,32.33
2022-08-20T03:38:57.636Z,31.98
2022-08-20T03:41:24.502Z,34.10
2022-08-20T03:43:51.566Z,33.50
2022-08-20T03:46:23.185Z,36.20
2022-08-20T03:48:52.419Z,34.50
2022-08-20T03:51:30.001Z,36.22
2022-08-20T03:53:56.745Z,31.42
2022-08-20T03:56:23.402Z,32.90
2022-08-20T03:58:50.221Z,31.20
2022-08-20T04:01:45.438Z,31.92
2022-08-20T04:04:03.780Z,35.08
2022-08-20T04:06:30.641Z,36.92
2022-08-20T04:08:58.283Z,29.98
2022-08-20T04:11:24.923Z,36.30
2022-08-20T04:13:51.761Z,34.88
2022-08-20T04:16:19.478Z,36.30
2022-08-20T04:19:02.031Z,35.55
2022-08-20T04:21:35.758Z,33.05
2022-08-20T04:24:04.451Z,33.78
2022-08-20T04:26:31.775Z,32.95
2022-08-20T04:28:58.517Z,29.70
2022-08-20T04:31:25.607Z,32.70
2022-08-20T04:33:52.408Z,32.33
2022-08-20T04:36:18.940Z,29.90
2022-08-20T04:38:50.028Z,31.98
2022-08-20T04:41:23.252Z,33.58
2022-08-20T04:43:51.717Z,33.92
2022-08-20T04:46:19.424Z,30.50
2022-08-20T04:48:49.037Z,34.03
2022-08-20T04:51:16.720Z,36.10
2022-08-20T04:53:43.229Z,31.83
2022-08-20T04:56:09.974Z,33.72
2022-08-20T04:58:39.403Z,33.25
2022-08-20T05:01:08.974Z,31.60
2022-08-20T05:03:39.225Z,32.67
2022-08-20T05:06:07.832Z,31.23
2022-08-20T05:08:35.953Z,30.58
2022-08-20T05:11:34.735Z,33.30
2022-08-20T05:13:52.993Z,28.48
2022-08-20T05:16:20.147Z,30.95
2022-08-20T05:18:50.538Z,28.90
2022-08-20T05:21:19.866Z,29.85
2022-08-20T05:23:46.598Z,33.47
2022-08-20T05:26:13.227Z,32.88
2022-08-20T05:28:49.989Z,29.15
2022-08-20T05:31:31.777Z,31.83
2022-08-20T05:34:12.032Z,29.45
2022-08-20T05:36:44.810Z,31.58
2022-08-20T05:39:13.519Z,28.85
2022-08-20T05:41:40.774Z,29.10
2022-08-20T05:44:13.682Z,33.95
2022-08-20T05:46:42.841Z,28.48
2022-08-20T05:49:14.435Z,30.30
2022-08-20T05:51:41.162Z,31.17
2022-08-20T05:54:07.905Z,32.65
2022-08-20T05:56:36.054Z,28.92
2022-08-20T05:59:04.948Z,28.65
2022-08-20T06:01:32.650Z,26.98
2022-08-20T06:04:18.077Z,26.65
2022-08-20T06:06:47.078Z,26.52
2022-08-20T06:09:31.158Z,28.13
2022-08-20T06:12:03.114Z,27.92
2022-08-20T06:14:30.156Z,29.25
2022-08-20T06:17:04.700Z,26.48
2022-08-20T06:19:33.278Z,26.95
2022-08-20T06:22:00.671Z,32.45
2022-08-20T06:24:27.471Z,30.35
2022-08-20T06:26:58.805Z,26.55
2022-08-20T06:29:26.178Z,29.35
2022-08-20T06:31:53.012Z,26.80
2022-08-20T06:34:19.755Z,28.40
2022-08-20T06:36:46.890Z,26.55
2022-08-20T06:39:14.743Z,27.63
2022-08-20T06:41:42.029Z,27.20
2022-08-20T06:44:08.656Z,29.25
2022-08-20T06:46:36.235Z,27.73
2022-08-20T06:49:04.608Z,27.35
2022-08-20T06:51:31.115Z,29.52
2022-08-20T06:53:57.813Z,33.17
2022-08-20T06:56:24.492Z,28.25
2022-08-20T06:58:51.068Z,30.48
2022-08-20T07:01:21.264Z,30.63
2022-08-20T07:03:55.869Z,28.95
2022-08-20T07:06:25.971Z,27.08
2022-08-20T07:08:53.675Z,31.90
2022-08-20T07:11:26.655Z,32.25
2022-08-20T07:13:54.391Z,32.28
2022-08-20T07:16:20.940Z,30.00
2022-08-20T07:18:47.507Z,33.58
2022-08-20T07:21:14.156Z,33.22
2022-08-20T07:23:42.293Z,32.83
2022-08-20T07:26:08.846Z,33.08
2022-08-20T07:28:35.416Z,32.85
2022-08-20T07:31:20.908Z,38.63
2022-08-20T07:33:47.624Z,35.08
2022-08-20T07:36:17.810Z,40.90
2022-08-20T07:38:47.112Z,33.05
2022-08-20T07:41:15.194Z,35.00
2022-08-20T07:43:43.330Z,35.75
2022-08-20T07:46:10.227Z,36.47
2022-08-20T07:48:42.028Z,39.97
2022-08-20T07:51:09.884Z,42.45
2022-08-20T07:53:39.072Z,40.65
2022-08-20T07:56:08.294Z,40.35
2022-08-20T07:58:36.812Z,35.10
2022-08-20T08:01:05.789Z,44.58
2022-08-20T08:03:39.537Z,42.65
2022-08-20T08:06:09.796Z,37.70
2022-08-20T08:08:41.480Z,39.00
2022-08-20T08:11:08.606Z,40.92
2022-08-20T08:13:38.699Z,39.85
2022-08-20T08:16:06.719Z,43.85
2022-08-20T08:18:40.630Z,40.15
2022-08-20T08:21:08.156Z,39.42
2022-08-20T08:23:35.047Z,41.20
2022-08-20T08:26:01.989Z,38.25
2022-08-20T08:28:29.777Z,38.58
2022-08-20T08:30:57.068Z,40.75
2022-08-20T08:33:29.432Z,36.80
2022-08-20T08:36:03.391Z,38.83
2022-08-20T08:38:32.501Z,39.20
2022-08-20T08:41:04.346Z,39.25
2022-08-20T08:43:31.245Z,40.17
2022-08-20T08:46:01.894Z,38.92
2022-08-20T08:48:34.451Z,38.97
2022-08-20T08:51:04.033Z,38.97
2022-08-20T08:53:37.962Z,39.72
2022-08-20T08:56:07.704Z,37.30
2022-08-20T08:58:35.437Z,41.00
2022-08-20T09:01:13.858Z,39.45
2022-08-20T09:03:57.978Z,38.70
2022-08-20T09:06:26.177Z,39.78
2022-08-20T09:08:54.869Z,37.25
2022-08-20T09:11:22.776Z,37.03
2022-08-20T09:13:49.679Z,34.67
2022-08-20T09:16:16.313Z,34.67
2022-08-20T09:18:42.996Z,34.75
2022-08-20T09:21:09.842Z,34.03
2022-08-20T09:23:36.473Z,36.75
2022-08-20T09:26:03.144Z,34.03
2022-08-20T09:28:32.284Z,32.60
2022-08-20T09:31:01.786Z,32.72
2022-08-20T09:33:28.381Z,27.95
2022-08-20T09:35:54.955Z,27.60
2022-08-20T09:38:21.534Z,33.15
2022-08-20T09:40:48.127Z,29.63
2022-08-20T09:43:14.692Z,28.92
2022-08-20T09:45:41.234Z,25.23
2022-08-20T09:48:10.293Z,27.10
2022-08-20T09:50:37.673Z,25.63
2022-08-20T09:53:05.584Z,24.75
2022-08-20T09:55:33.827Z,24.80
2022-08-20T09:58:03.591Z,24.10
2022-08-20T10:00:30.343Z,23.80
2022-08-20T10:02:57.084Z,23.80
2022-08-20T10:05:23.759Z,20.98
2022-08-20T10:07:50.379Z,24.42
2022-08-20T10:10:16.976Z,21.50
2022-08-20T10:12:43.603Z,20.52
2022-08-20T10:15:10.930Z,23.48
2022-08-20T10:17:42.269Z,18.17
2022-08-20T10:20:12.098Z,19.67
2022-08-20T10:22:38.713Z,17.40
2022-08-20T10:25:06.984Z,17.35
2022-08-20T10:27:34.219Z,15.93
2022-08-20T10:30:00.896Z,14.85
2022-08-20T10:32:27.440Z,16.20
2022-08-20T10:34:54.078Z,13.20
2022-08-20T10:37:23.534Z,12.75
2022-08-20T10:39:50.533Z,14.00
2022-08-20T10:42:17.196Z,13.75
2022-08-20T10:44:44.063Z,13.18
2022-08-20T10:47:23.123Z,12.02
2022-08-20T10:49:51.552Z,11.45
2022-08-20T10:52:18.443Z,10.82
2022-08-20T10:54:45.547Z,10.38
2022-08-20T10:57:24.197Z,10.15
2022-08-20T10:59:52.101Z,11.65
2022-08-20T11:02:19.705Z,11.77
2022-08-20T11:04:46.474Z,9.45
2022-08-20T11:07:21.815Z,8.15
2022-08-20T11:10:13.609Z,9.32
2022-08-20T11:12:40.650Z,8.38
2022-08-20T11:15:10.895Z,12.85
2022-08-20T11:17:41.672Z,8.07
2022-08-20T11:20:09.341Z,7.75
2022-08-20T11:22:36.440Z,12.13
2022-08-20T11:25:04.798Z,6.38
2022-08-20T11:27:34.861Z,6.82
2022-08-20T11:30:01.804Z,10.20
2022-08-20T11:32:28.662Z,7.28
2022-08-20T11:34:55.180Z,8.25
2022-08-20T11:37:24.197Z,7.32
2022-08-20T11:39:51.370Z,7.53
2022-08-20T11:42:18.552Z,8.55
2022-08-20T11:44:45.143Z,6.97
2022-08-20T11:47:22.061Z,6.80
2022-08-20T11:49:57.791Z,5.28
2022-08-20T11:52:24.357Z,5.22
2022-08-20T11:54:55.037Z,5.43
2022-08-20T11:57:27.913Z,4.50
2022-08-20T11:59:56.047Z,5.95
2022-08-20T12:02:22.781Z,4.45
2022-08-20T12:04:49.627Z,4.15
2022-08-20T12:07:18.925Z,4.35
2022-08-20T12:09:50.849Z,7.20
2022-08-20T12:12:20.585Z,4.68
2022-08-20T12:14:47.138Z,4.43
2022-08-20T12:17:19.717Z,4.70
2022-08-20T12:19:51.060Z,5.40
2022-08-20T12:22:25.326Z,4.40
2022-08-20T12:24:54.037Z,4.80
2022-08-20T12:27:29.302Z,4.95
2022-08-20T12:29:57.375Z,7.22
2022-08-20T12:32:25.823Z,8.00
2022-08-20T12:34:52.723Z,5.70
2022-08-20T12:37:21.713Z,6.13
2022-08-20T12:39:51.543Z,5.32
2022-08-20T12:42:18.437Z,6.20
2022-08-20T12:44:45.088Z,5.75
2022-08-20T12:47:20.248Z,4.85
2022-08-20T12:50:01.595Z,5.60
2022-08-20T12:52:29.881Z,5.47
2022-08-20T12:54:57.605Z,6.38
2022-08-20T12:57:35.601Z,5.68
2022-08-20T13:00:13.448Z,6.20
2022-08-20T13:02:41.379Z,5.25
2022-08-20T13:05:09.428Z,6.10
2022-08-20T13:07:36.215Z,6.70
2022-08-20T13:10:03.776Z,7.03
2022-08-20T13:12:30.452Z,7.82
2022-08-20T13:14:57.069Z,7.00
2022-08-20T13:17:38.235Z,11.60
2022-08-20T13:20:08.414Z,8.50
2022-08-20T13:22:35.185Z,9.82
2022-08-20T13:25:01.693Z,7.75
2022-08-20T13:27:28.202Z,10.10
2022-08-20T13:29:58.599Z,12.07
2022-08-20T13:32:26.185Z,9.98
2022-08-20T13:34:52.809Z,9.73
2022-08-20T13:37:25.520Z,10.15
2022-08-20T13:39:53.354Z,7.90
2022-08-20T13:42:20.355Z,7.80
2022-08-20T13:44:47.571Z,8.57
2022-08-20T13:47:21.536Z,8.43
2022-08-20T13:49:49.523Z,10.05
2022-08-20T13:52:16.977Z,8.57
2022-08-20T13:54:43.928Z,8.55
2022-08-20T13:57:17.030Z,10.25
2022-08-20T13:59:45.233Z,10.85
2022-08-20T14:02:12.589Z,11.20
2022-08-20T14:04:39.639Z,10.65
2022-08-20T14:07:14.828Z,11.10
2022-08-20T14:09:42.993Z,10.80
2022-08-20T14:12:10.641Z,10.52
2022-08-20T14:14:37.535Z,11.32
2022-08-20T14:17:21.048Z,11.95
2022-08-20T14:19:52.012Z,11.95
2022-08-20T14:22:19.192Z,12.25
2022-08-20T14:24:48.701Z,14.10
2022-08-20T14:27:18.422Z,14.85
2022-08-20T14:29:46.538Z,13.25
2022-08-20T14:32:13.366Z,14.82
2022-08-20T14:34:40.456Z,15.15
2022-08-20T14:37:22.031Z,13.38
2022-08-20T14:39:50.572Z,13.68
2022-08-20T14:42:17.579Z,14.25
2022-08-20T14:44:44.258Z,12.80
2022-08-20T14:47:15.327Z,13.82
2022-08-20T14:49:42.662Z,13.43
2022-08-20T14:52:09.509Z,15.40
2022-08-20T14:54:36.275Z,14.52
2022-08-20T14:57:03.174Z,13.40
2022-08-20T14:59:29.865Z,12.77
2022-08-20T15:01:56.409Z,14.75
2022-08-20T15:04:23.727Z,14.20
2022-08-20T15:06:52.615Z,13.80
2022-08-20T15:09:21.497Z,13.98
2022-08-20T15:11:48.084Z,13.40
2022-08-20T15:14:15.141Z,14.60
2022-08-20T15:16:45.094Z,15.55
2022-08-20T15:19:11.617Z,15.07
2022-08-20T15:21:45.426Z,14.32
2022-08-20T15:24:18.869Z,15.05
2022-08-20T15:26:45.792Z,14.73
2022-08-20T15:29:12.408Z,14.93
2022-08-20T15:31:49.838Z,14.52
2022-08-20T15:34:17.918Z,14.82
2022-08-20T15:36:44.729Z,15.50
2022-08-20T15:39:11.634Z,14.75
2022-08-20T15:41:38.167Z,14.02
2022-08-20T15:44:04.835Z,14.93
2022-08-20T15:46:36.053Z,14.50
2022-08-20T15:49:08.651Z,14.63
2022-08-20T15:51:43.021Z,15.43
2022-08-20T15:54:18.840Z,14.20
2022-08-20T15:57:07.735Z,15.77
2022-08-20T15:59:43.350Z,15.32
2022-08-20T16:02:26.043Z,17.40
2022-08-20T16:05:02.668Z,15.35
2022-08-20T16:07:47.840Z,19.45
2022-08-20T16:10:30.270Z,14.98
2022-08-20T16:12:59.112Z,14.48
2022-08-20T16:15:30.450Z,14.55
2022-08-20T16:18:06.519Z,15.85
2022-08-20T16:20:41.023Z,13.93
2022-08-20T16:23:08.724Z,15.55
2022-08-20T16:26:06.592Z,14.40
2022-08-20T16:29:05.427Z,15.25
2022-08-20T16:31:44.689Z,15.45
2022-08-20T16:34:32.174Z,26.17
2022-08-20T16:37:25.750Z,18.25
2022-08-20T16:39:57.395Z,13.60
2022-08-20T16:42:26.426Z,14.57
2022-08-20T16:44:56.820Z,15.50
2022-08-20T16:47:41.451Z,14.32
2022-08-20T16:50:19.985Z,15.32
2022-08-20T16:52:47.134Z,15.10
2022-08-20T16:55:14.471Z,16.27
2022-08-20T16:57:41.543Z,15.32
2022-08-20T17:00:16.914Z,14.48
2022-08-20T17:02:58.070Z,14.75
2022-08-20T17:05:28.011Z,14.27
2022-08-20T17:08:03.957Z,14.23
2022-08-20T17:10:37.549Z,14.90
2022-08-20T17:13:21.074Z,13.32
2022-08-20T17:16:27.994Z,13.63
2022-08-20T17:18:54.897Z,13.45
2022-08-20T17:21:27.565Z,14.65
2022-08-20T17:23:57.707Z,14.25
2022-08-20T17:26:37.659Z,16.15
2022-08-20T17:29:20.465Z,16.23
2022-08-20T17:31:53.199Z,17.85
2022-08-20T17:34:25.980Z,17.00
2022-08-20T17:36:55.864Z,14.77
2022-08-20T17:39:24.738Z,13.52
2022-08-20T17:42:07.722Z,13.65
2022-08-20T17:44:37.832Z,7.45
2022-08-20T17:47:07.801Z,7.93
2022-08-20T17:49:57.299Z,5.68
2022-08-20T17:52:33.147Z,10.27
2022-08-20T17:55:00.784Z,5.05
2022-08-20T17:57:33.236Z,5.13
2022-08-20T18:00:05.783Z,7.45
2022-08-20T18:02:33.492Z,6.63
2022-08-20T18:05:01.077Z,5.38
2022-08-20T18:07:31.793Z,5.30
2022-08-20T18:10:04.367Z,4.63
2022-08-20T18:12:41.802Z,6.13
2022-08-20T18:15:10.258Z,5.13
2022-08-20T18:17:42.794Z,4.63
2022-08-20T18:20:35.596Z,6.32
2022-08-20T18:23:12.122Z,4.32
2022-08-20T18:25:52.231Z,3.70
2022-08-20T18:28:22.216Z,3.95
2022-08-20T18:30:54.725Z,5.43
2022-08-20T18:33:31.277Z,4.13
2022-08-20T18:36:09.049Z,8.48
2022-08-20T18:38:38.632Z,3.80
2022-08-20T18:41:13.529Z,3.90
2022-08-20T18:43:41.044Z,3.22
2022-08-20T18:46:22.567Z,4.10
2022-08-20T18:49:02.710Z,4.50
2022-08-20T18:51:43.224Z,4.30
2022-08-20T18:54:28.882Z,5.13
2022-08-20T18:57:28.586Z,5.10
2022-08-20T19:00:16.881Z,10.13
2022-08-20T19:02:59.503Z,5.85
2022-08-20T19:05:50.317Z,5.68
2022-08-20T19:08:20.639Z,5.22
2022-08-20T19:10:57.862Z,7.43
2022-08-20T19:13:42.379Z,5.65
2022-08-20T19:16:14.751Z,4.97
2022-08-20T19:19:01.611Z,6.75
2022-08-20T19:21:35.666Z,6.85
2022-08-20T19:24:05.359Z,5.90
2022-08-20T19:26:33.329Z,7.50
2022-08-20T19:29:08.360Z,9.07
2022-08-20T19:31:35.527Z,7.68
2022-08-20T19:34:20.302Z,5.95
2022-08-20T19:37:04.549Z,6.97
2022-08-20T19:39:48.052Z,6.45
2022-08-20T19:42:19.134Z,6.95
2022-08-20T19:44:48.403Z,8.15
2022-08-20T19:47:23.569Z,6.40
2022-08-20T19:50:34.723Z,6.13
2022-08-20T19:53:10.653Z,9.52
2022-08-20T19:55:39.058Z,6.30
2022-08-20T19:58:11.726Z,8.07
2022-08-20T20:00:49.128Z,7.85
2022-08-20T20:03:19.654Z,5.93
2022-08-20T20:05:53.970Z,7.35
2022-08-20T20:08:22.416Z,7.53
2022-08-20T20:10:57.511Z,7.32
2022-08-20T20:13:25.451Z,6.70
2022-08-20T20:15:55.178Z,7.15
2022-08-20T20:18:25.293Z,6.20
2022-08-20T20:20:58.173Z,5.93
2022-08-20T20:23:27.898Z,6.07
2022-08-20T20:26:07.756Z,6.20
2022-08-20T20:28:48.538Z,5.43
2022-08-20T20:31:25.376Z,6.30
2022-08-20T20:33:55.489Z,6.20
2022-08-20T20:36:41.322Z,6.75
2022-08-20T20:39:14.334Z,6.40
2022-08-20T20:41:51.462Z,5.07
2022-08-20T20:44:25.359Z,5.82
2022-08-20T20:46:58.143Z,5.57
2022-08-20T20:49:26.780Z,5.18
2022-08-20T20:52:06.474Z,7.32
2022-08-20T20:54:44.580Z,5.45
2022-08-20T20:57:34.260Z,5.05
2022-08-20T21:00:09.397Z,6.25
2022-08-20T21:02:35.927Z,5.80
2022-08-20T21:05:02.536Z,5.85
2022-08-20T21:07:29.309Z,8.80
2022-08-20T21:09:56.757Z,5.95
2022-08-20T21:12:23.775Z,5.82
2022-08-20T21:14:50.535Z,5.85
2022-08-20T21:17:22.748Z,5.85
2022-08-20T21:19:51.003Z,4.95
2022-08-20T21:22:18.758Z,5.72
2022-08-20T21:24:45.842Z,7.38
2022-08-20T21:27:12.819Z,7.20
2022-08-20T21:29:39.896Z,6.85
2022-08-20T21:32:06.765Z,9.25
2022-08-20T21:34:33.380Z,6.10
2022-08-20T21:36:59.900Z,7.20
2022-08-20T21:39:27.089Z,5.32
2022-08-20T21:41:55.224Z,5.43
2022-08-20T21:44:25.668Z,5.25
2022-08-20T21:46:53.928Z,5.38
2022-08-20T21:49:21.415Z,7.72
2022-08-20T21:51:48.820Z,6.00
2022-08-20T21:54:16.115Z,5.90
2022-08-20T21:56:43.043Z,5.75
2022-08-20T21:59:09.998Z,5.47
2022-08-20T22:01:38.269Z,6.68
2022-08-20T22:04:06.560Z,5.75
2022-08-20T22:06:33.177Z,7.32
2022-08-20T22:08:59.914Z,8.55
2022-08-20T22:11:26.831Z,5.90
2022-08-20T22:13:53.602Z,6.05
2022-08-20T22:16:21.618Z,6.13
2022-08-20T22:18:49.664Z,6.97
2022-08-20T22:21:27.273Z,7.03
2022-08-20T22:23:57.067Z,7.47
2022-08-20T22:26:23.630Z,6.50
2022-08-20T22:28:53.877Z,6.57
2022-08-20T22:31:24.308Z,7.18
2022-08-20T22:33:50.888Z,6.97
2022-08-20T22:36:17.855Z,6.80
2022-08-20T22:38:44.960Z,7.05
2022-08-20T22:41:13.770Z,6.15
2022-08-20T22:43:43.377Z,6.10
2022-08-20T22:46:15.118Z,6.78
2022-08-20T22:48:42.805Z,6.13
2022-08-20T22:51:11.046Z,6.50
2022-08-20T22:53:38.865Z,6.93
2022-08-20T22:56:05.562Z,6.53
2022-08-20T22:58:32.426Z,6.72
2022-08-20T23:00:59.726Z,6.35
2022-08-20T23:03:39.275Z,6.90
2022-08-20T23:06:08.088Z,7.82
2022-08-20T23:08:34.640Z,6.22
2022-08-20T23:11:01.478Z,7.07
2022-08-20T23:13:28.100Z,6.40
2022-08-20T23:15:54.731Z,6.47
2022-08-20T23:18:21.498Z,6.47
2022-08-20T23:20:53.884Z,8.55
2022-08-20T23:23:20.932Z,6.60
2022-08-20T23:25:47.816Z,7.47
2022-08-20T23:28:17.038Z,6.53
2022-08-20T23:30:43.530Z,7.07
2022-08-20T23:33:10.143Z,6.18
2022-08-20T23:35:38.219Z,6.50
2022-08-20T23:38:05.542Z,6.60
2022-08-20T23:40:32.209Z,6.45
2022-08-20T23:43:00.062Z,6.20
2022-08-20T23:45:27.497Z,7.00
2022-08-20T23:47:54.162Z,8.70
2022-08-20T23:50:24.762Z,5.82
2022-08-20T23:52:52.327Z,5.70
2022-08-20T23:55:19.519Z,5.97
2022-08-20T23:57:46.153Z,5.70
